Heidelberg, Texas
Current Conditions -  °F | °C
As of 1:55 AM on Tuesday 21 Oct 2014 (Local Time) from KT65 Reporting Station
Clear Clear  
Wind Chill: 71°   Ceiling: Unl
Heat Index: 71°   Visibility: 7mi
Dew Point: 67°   Wind: 3mph
Humidity: 89%   Direction: 340°NNW
Pressure: 29.93"   Gusts: NA
Location:  26.1456°N, 97.91°W
Report Text: KT65 210655Z AUTO 34003KT 7SM CLR 22/20 A2993 RMK AO2 T02150197
Loading
Personal Weather Stations






























Interactive Weather Map
Tropical Storm Tracking
New forecast layout! Learn more

10-Day Weather Forecast

Advertisements
Track Severe Weather on mobile